CheckWX is a tool to help pilots better visualize weather data.  It is not intended as a substitute for an official pre-flight weather briefing.

00:52:01 UTC

EGVN METAR
RAF Brize Norton Airport
Brize Norton, United Kingdom
Current

1 hour ago

EGVN 232350Z 05005KT 9999 SCT045 SCT100 BKN240 06/02 Q1032 BLACKBLU NOSIG
Observed
Mar-23 @ 23:50 UTC
Wind
  • 050° at 5 KTS
Visibility
10,000+ meters
Flight Rules
VFR
Cloud Levels
  • Scattered at 4,500' AGL
  • Scattered at 10,000' AGL
  • Broken at 24,000' AGL
Temperature
C / 43°F
Dewpoint
C / 36°F
Humidity
76%
Altimeter
30.47" Hg
Pressure
1031.91 hPa
Previous

2 hours ago

EGVN 232250Z 02005KT 9999 SCT046 SCT120 BKN240 06/02 Q1032 BLACKBLU NOSIG
Observed
Mar-23 @ 22:50 UTC
Wind
  • 020° at 5 KTS
Visibility
10,000+ meters
Flight Rules
VFR
Cloud Levels
  • Scattered at 4,600' AGL
  • Scattered at 12,000' AGL
  • Broken at 24,000' AGL
Temperature
C / 43°F
Dewpoint
C / 36°F
Humidity
76%
Altimeter
30.47" Hg
Pressure
1031.91 hPa
Previous

3 hours ago

EGVN 232150Z 03004KT 9999 SCT046 BKN240 06/02 Q1032 BLACKBLU NOSIG
Observed
Mar-23 @ 21:50 UTC
Wind
  • 030° at 4 KTS
Visibility
10,000+ meters
Flight Rules
VFR
Cloud Levels
  • Scattered at 4,600' AGL
  • Broken at 24,000' AGL
Temperature
C / 43°F
Dewpoint
C / 36°F
Humidity
76%
Altimeter
30.47" Hg
Pressure
1031.91 hPa